createdAt,value
2022-09-01T00:00:57.598Z,14.87
2022-09-01T00:03:24.509Z,14.07
2022-09-01T00:05:55.210Z,12.80
2022-09-01T00:08:24.228Z,12.57
2022-09-01T00:10:51.147Z,12.90
2022-09-01T00:13:18.526Z,13.63
2022-09-01T00:15:45.501Z,12.50
2022-09-01T00:18:13.597Z,11.80
2022-09-01T00:20:40.492Z,12.03
2022-09-01T00:23:07.401Z,13.80
2022-09-01T00:25:35.706Z,15.13
2022-09-01T00:28:04.882Z,14.97
2022-09-01T00:30:32.025Z,11.60
2022-09-01T00:32:59.052Z,13.90
2022-09-01T00:35:26.196Z,13.77
2022-09-01T00:37:53.209Z,13.63
2022-09-01T00:40:20.366Z,14.03
2022-09-01T00:42:49.273Z,15.90
2022-09-01T00:45:16.295Z,15.37
2022-09-01T00:47:43.446Z,17.50
2022-09-01T00:50:12.571Z,19.93
2022-09-01T00:52:43.007Z,17.60
2022-09-01T00:55:14.659Z,17.83
2022-09-01T00:57:42.273Z,17.13
2022-09-01T01:00:13.831Z,15.97
2022-09-01T01:02:41.740Z,17.80
2022-09-01T01:05:09.507Z,16.13
2022-09-01T01:07:43.336Z,17.37
2022-09-01T01:10:17.751Z,17.10
2022-09-01T01:12:45.271Z,16.67
2022-09-01T01:15:14.708Z,17.40
2022-09-01T01:17:41.704Z,18.27
2022-09-01T01:20:29.533Z,20.13
2022-09-01T01:23:05.933Z,17.33
2022-09-01T01:25:40.933Z,19.20
2022-09-01T01:28:13.490Z,18.40
2022-09-01T01:30:44.045Z,16.97
2022-09-01T01:33:11.755Z,17.10
2022-09-01T01:35:40.012Z,17.87
2022-09-01T01:38:07.936Z,16.13
2022-09-01T01:40:35.826Z,16.27
2022-09-01T01:43:05.399Z,16.47
2022-09-01T01:45:32.780Z,18.27
2022-09-01T01:48:01.172Z,18.00
2022-09-01T01:50:33.444Z,16.30
2022-09-01T01:53:02.933Z,19.00
2022-09-01T01:55:39.215Z,16.33
2022-09-01T01:58:09.854Z,18.63
2022-09-01T02:00:36.840Z,19.07
2022-09-01T02:03:05.261Z,24.73
2022-09-01T02:05:35.634Z,23.73
2022-09-01T02:08:06.074Z,21.80
2022-09-01T02:10:34.773Z,23.37
2022-09-01T02:13:05.879Z,20.03
2022-09-01T02:15:42.674Z,17.67
2022-09-01T02:18:10.035Z,17.47
2022-09-01T02:20:37.084Z,18.83
2022-09-01T02:23:10.606Z,20.57
2022-09-01T02:26:05.162Z,19.40
2022-09-01T02:28:34.931Z,19.60
2022-09-01T02:31:05.272Z,20.07
2022-09-01T02:33:32.885Z,19.57
2022-09-01T02:36:02.109Z,18.87
2022-09-01T02:38:29.825Z,19.27
2022-09-01T02:40:59.171Z,19.43
2022-09-01T02:43:28.184Z,17.17
2022-09-01T02:45:59.675Z,15.87
2022-09-01T02:48:32.917Z,19.30
2022-09-01T02:51:02.007Z,20.30
2022-09-01T02:53:29.266Z,18.23
2022-09-01T02:55:59.465Z,18.00
2022-09-01T02:58:27.929Z,18.50
2022-09-01T03:00:56.980Z,17.40
2022-09-01T03:03:24.743Z,17.83
2022-09-01T03:05:57.190Z,18.80
2022-09-01T03:08:25.167Z,18.27
2022-09-01T03:10:53.962Z,22.10
2022-09-01T03:13:23.955Z,20.03
2022-09-01T03:15:51.452Z,20.40
2022-09-01T03:18:19.274Z,20.90
2022-09-01T03:20:47.334Z,18.00
2022-09-01T03:23:19.356Z,20.37
2022-09-01T03:25:47.831Z,18.50
2022-09-01T03:28:15.610Z,21.23
2022-09-01T03:30:46.203Z,19.30
2022-09-01T03:33:13.185Z,17.60
2022-09-01T03:35:40.510Z,19.40
2022-09-01T03:38:07.451Z,17.90
2022-09-01T03:40:36.876Z,17.13
2022-09-01T03:43:06.504Z,17.93
2022-09-01T03:45:38.359Z,18.53
2022-09-01T03:48:09.006Z,19.30
2022-09-01T03:50:45.001Z,17.67
2022-09-01T03:53:14.317Z,17.40
2022-09-01T03:55:45.210Z,16.53
2022-09-01T03:58:14.721Z,19.97
2022-09-01T04:00:45.478Z,22.10
2022-09-01T04:03:28.602Z,18.90
2022-09-01T04:05:56.440Z,19.60
2022-09-01T04:08:27.513Z,20.97
2022-09-01T04:11:05.080Z,19.63
2022-09-01T04:13:36.353Z,20.67
2022-09-01T04:16:10.472Z,19.23
2022-09-01T04:18:40.040Z,20.17
2022-09-01T04:21:08.066Z,21.20
2022-09-01T04:23:37.141Z,20.73
2022-09-01T04:26:15.584Z,18.80
2022-09-01T04:28:45.978Z,20.40
2022-09-01T04:31:18.713Z,18.20
2022-09-01T04:33:52.070Z,18.10
2022-09-01T04:36:23.531Z,19.43
2022-09-01T04:38:55.169Z,19.60
2022-09-01T04:41:27.606Z,19.77
2022-09-01T04:43:57.016Z,21.60
2022-09-01T04:46:28.450Z,22.90
2022-09-01T04:48:57.545Z,25.93
2022-09-01T04:51:28.004Z,21.10
2022-09-01T04:53:57.360Z,22.70
2022-09-01T04:56:26.843Z,23.47
2022-09-01T04:59:13.229Z,23.93
2022-09-01T05:01:45.317Z,21.37
2022-09-01T05:04:17.914Z,21.47
2022-09-01T05:06:49.237Z,22.83
2022-09-01T05:09:19.110Z,24.87
2022-09-01T05:12:15.701Z,22.23
2022-09-01T05:14:48.541Z,21.23
2022-09-01T05:17:19.192Z,22.03
2022-09-01T05:19:50.535Z,23.13
2022-09-01T05:22:22.987Z,25.73
2022-09-01T05:24:55.579Z,25.63
2022-09-01T05:27:26.776Z,22.93
2022-09-01T05:29:54.465Z,20.87
2022-09-01T05:32:25.899Z,23.30
2022-09-01T05:34:53.693Z,22.07
2022-09-01T05:37:21.656Z,21.50
2022-09-01T05:39:50.346Z,21.70
2022-09-01T05:42:17.645Z,23.67
2022-09-01T05:44:47.973Z,20.23
2022-09-01T05:47:21.184Z,21.43
2022-09-01T05:49:50.947Z,22.47
2022-09-01T05:52:20.512Z,20.53
2022-09-01T05:54:48.074Z,22.97
2022-09-01T05:57:33.961Z,22.73
2022-09-01T06:00:10.927Z,24.17
2022-09-01T06:02:40.161Z,23.80
2022-09-01T06:05:08.610Z,22.97
2022-09-01T06:07:39.657Z,21.27
2022-09-01T06:10:08.391Z,19.63
2022-09-01T06:12:35.311Z,19.23
2022-09-01T06:15:04.215Z,19.63
2022-09-01T06:17:34.671Z,17.33
2022-09-01T06:20:10.674Z,11.37
2022-09-01T06:22:40.971Z,18.63
2022-09-01T06:25:10.273Z,17.97
2022-09-01T06:27:41.194Z,17.33
2022-09-01T06:30:15.275Z,10.80
2022-09-01T06:32:49.771Z,16.03
2022-09-01T06:35:18.228Z,17.73
2022-09-01T06:37:46.024Z,16.93
2022-09-01T06:40:25.406Z,18.60
2022-09-01T06:42:53.477Z,9.30
2022-09-01T06:45:24.122Z,10.13
2022-09-01T06:47:52.601Z,16.37
2022-09-01T06:53:42.876Z,17.13
2022-09-01T06:56:09.260Z,19.13
2022-09-01T06:58:38.041Z,17.40
2022-09-01T07:01:15.584Z,16.53
2022-09-01T07:03:43.927Z,16.17
2022-09-01T07:12:26.015Z,16.77
2022-09-01T07:17:49.970Z,13.37
2022-09-01T07:20:24.760Z,13.47
2022-09-01T07:23:09.958Z,10.43
2022-09-01T07:26:01.229Z,12.30
2022-09-01T07:28:40.555Z,6.87
2022-09-01T07:42:59.127Z,13.43
2022-09-01T07:42:59.491Z,10.90
2022-09-01T07:51:37.169Z,8.43
2022-09-01T07:54:06.414Z,9.20
2022-09-01T07:56:39.487Z,13.97
2022-09-01T07:59:15.005Z,19.33
2022-09-01T08:01:50.730Z,18.67
2022-09-01T08:04:22.815Z,6.70
2022-09-01T08:06:51.402Z,7.17
2022-09-01T08:09:25.330Z,6.80
2022-09-01T08:12:02.711Z,6.40
2022-09-01T08:14:34.352Z,11.57
2022-09-01T08:17:16.810Z,5.53
2022-09-01T08:19:46.937Z,14.73
2022-09-01T08:22:24.325Z,9.53
2022-09-01T08:24:59.283Z,10.60
2022-09-01T08:27:26.440Z,7.73
2022-09-01T08:29:53.373Z,6.37
2022-09-01T08:32:21.243Z,9.47
2022-09-01T08:34:48.247Z,7.17
2022-09-01T08:37:15.237Z,9.80
2022-09-01T08:39:43.681Z,6.73
2022-09-01T08:42:16.388Z,5.50
2022-09-01T08:44:54.482Z,8.10
2022-09-01T08:47:35.453Z,8.83
2022-09-01T08:50:09.684Z,7.30
2022-09-01T08:53:10.515Z,6.77
2022-09-01T08:55:43.870Z,5.10
2022-09-01T08:58:15.510Z,8.67
2022-09-01T09:01:08.794Z,5.27
2022-09-01T09:03:42.887Z,6.07
2022-09-01T09:06:17.255Z,7.17
2022-09-01T09:08:54.213Z,5.87
2022-09-01T09:11:56.369Z,5.10
2022-09-01T09:14:36.945Z,4.70
2022-09-01T09:17:04.398Z,4.60
2022-09-01T09:19:34.702Z,5.57
2022-09-01T09:22:05.830Z,4.43
2022-09-01T09:24:50.218Z,5.50
2022-09-01T09:27:21.630Z,4.23
2022-09-01T09:29:50.959Z,6.10
2022-09-01T09:32:22.847Z,4.70
2022-09-01T09:34:51.687Z,3.90
2022-09-01T09:37:24.791Z,5.23
2022-09-01T09:40:11.491Z,6.10
2022-09-01T09:42:42.424Z,3.90
2022-09-01T09:45:23.593Z,6.77
2022-09-01T09:47:51.083Z,4.40
2022-09-01T09:50:23.715Z,5.77
2022-09-01T09:52:52.573Z,4.30
2022-09-01T09:55:26.051Z,4.80
2022-09-01T09:57:58.079Z,4.93
2022-09-01T10:00:27.748Z,6.17
2022-09-01T10:02:58.337Z,5.40
2022-09-01T10:05:41.726Z,4.47
2022-09-01T10:08:12.367Z,4.27
2022-09-01T10:10:42.853Z,4.17
2022-09-01T10:13:15.586Z,3.93
2022-09-01T10:15:49.214Z,4.30
2022-09-01T10:18:28.489Z,3.60
2022-09-01T10:21:00.153Z,3.20
2022-09-01T10:23:31.340Z,3.47
2022-09-01T10:26:05.895Z,3.80
2022-09-01T10:28:50.734Z,4.07
2022-09-01T10:31:18.757Z,3.60
2022-09-01T10:33:46.262Z,3.30
2022-09-01T10:36:15.320Z,4.73
2022-09-01T10:38:52.640Z,3.43
2022-09-01T10:42:00.575Z,4.60
2022-09-01T10:44:33.798Z,3.10
2022-09-01T10:47:08.794Z,4.33
2022-09-01T10:49:59.545Z,3.50
2022-09-01T10:53:00.660Z,3.23
2022-09-01T10:55:34.779Z,3.70
2022-09-01T11:01:11.052Z,3.00
2022-09-01T11:04:00.732Z,3.40
2022-09-01T11:07:11.531Z,3.53
2022-09-01T11:09:35.978Z,4.33
2022-09-01T11:12:40.156Z,3.10
2022-09-01T11:15:35.538Z,3.67
2022-09-01T11:18:09.904Z,3.63
2022-09-01T11:20:39.534Z,3.40
2022-09-01T11:23:12.136Z,2.63
2022-09-01T11:25:43.709Z,3.00
2022-09-01T11:28:40.313Z,3.00
2022-09-01T11:31:25.915Z,2.70
2022-09-01T11:34:03.752Z,4.03
2022-09-01T11:36:35.119Z,2.90
2022-09-01T11:39:09.131Z,2.93
2022-09-01T11:41:55.736Z,4.07
2022-09-01T11:44:27.335Z,3.20
2022-09-01T11:47:01.927Z,3.20
2022-09-01T11:49:32.151Z,2.60
2022-09-01T11:52:00.557Z,3.70
2022-09-01T11:54:29.829Z,2.73
2022-09-01T11:56:56.778Z,2.80
2022-09-01T11:59:36.919Z,3.00
2022-09-01T12:02:05.260Z,3.30
2022-09-01T12:04:36.728Z,3.23
2022-09-01T12:07:08.114Z,3.77
2022-09-01T12:09:42.256Z,3.43
2022-09-01T12:12:28.159Z,3.90
2022-09-01T12:15:07.580Z,3.60
2022-09-01T12:17:35.111Z,2.80
2022-09-01T12:20:28.124Z,2.80
2022-09-01T12:22:56.526Z,3.33
2022-09-01T12:25:26.076Z,3.60
2022-09-01T12:27:54.114Z,3.10
2022-09-01T12:30:23.427Z,3.40
2022-09-01T12:32:50.745Z,5.30
2022-09-01T12:35:22.128Z,3.50
2022-09-01T12:37:50.268Z,6.27
2022-09-01T12:40:26.501Z,2.87
2022-09-01T12:42:54.127Z,4.20
2022-09-01T12:45:40.713Z,3.70
2022-09-01T12:48:23.886Z,4.10
2022-09-01T12:50:51.567Z,4.13
2022-09-01T12:53:22.077Z,3.60
2022-09-01T12:56:02.828Z,3.30
2022-09-01T12:58:31.826Z,4.77
2022-09-01T13:01:05.077Z,3.60
2022-09-01T13:03:34.675Z,3.10
2022-09-01T13:06:03.550Z,3.40
2022-09-01T13:08:33.126Z,4.00
2022-09-01T13:11:04.424Z,3.43
2022-09-01T13:13:31.565Z,4.03
2022-09-01T13:16:08.866Z,4.27
2022-09-01T13:19:10.413Z,5.67
2022-09-01T13:21:22.950Z,3.67
2022-09-01T13:23:50.726Z,2.83
2022-09-01T13:26:18.029Z,3.00
2022-09-01T13:28:46.033Z,3.27
2022-09-01T13:31:30.000Z,3.80
2022-09-01T13:34:22.933Z,3.20
2022-09-01T13:36:49.615Z,2.97
2022-09-01T13:39:19.064Z,4.03
2022-09-01T13:41:47.592Z,3.10
2022-09-01T13:44:14.619Z,3.80
2022-09-01T13:50:06.332Z,4.80
2022-09-01T13:52:16.919Z,3.00
2022-09-01T13:54:44.533Z,3.50
2022-09-01T13:57:11.714Z,4.10
2022-09-01T13:59:38.818Z,3.07
2022-09-01T14:02:07.490Z,3.70
2022-09-01T14:04:34.849Z,4.20
2022-09-01T14:07:02.522Z,4.30
2022-09-01T14:09:29.707Z,3.27
2022-09-01T14:11:57.072Z,3.47
2022-09-01T14:14:24.297Z,3.57
2022-09-01T14:16:51.529Z,3.30
2022-09-01T14:19:19.860Z,4.70
2022-09-01T14:21:47.315Z,3.73
2022-09-01T14:24:14.265Z,2.80
2022-09-01T14:26:41.402Z,3.07
2022-09-01T14:29:08.470Z,3.93
2022-09-01T14:31:37.605Z,2.90
2022-09-01T14:34:05.238Z,2.80
2022-09-01T14:36:33.584Z,3.17
2022-09-01T14:39:00.622Z,2.90
2022-09-01T14:41:27.551Z,4.37
2022-09-01T14:43:57.595Z,3.27
2022-09-01T14:46:25.903Z,3.13
2022-09-01T14:48:53.266Z,3.13
2022-09-01T14:51:24.323Z,2.90
2022-09-01T14:53:53.790Z,2.83
2022-09-01T14:56:21.659Z,3.90
2022-09-01T14:58:49.828Z,3.13
2022-09-01T15:01:33.873Z,3.03
2022-09-01T15:04:02.221Z,3.10
2022-09-01T15:06:29.161Z,3.33
2022-09-01T15:08:57.388Z,3.70
2022-09-01T15:11:24.293Z,2.83
2022-09-01T15:13:52.615Z,3.17
2022-09-01T15:16:22.778Z,3.77
2022-09-01T15:18:50.409Z,2.80
2022-09-01T15:21:21.748Z,2.70
2022-09-01T15:23:49.258Z,3.73
2022-09-01T15:26:17.915Z,2.60
2022-09-01T15:28:45.408Z,2.83
2022-09-01T15:31:17.838Z,3.17
2022-09-01T15:33:45.592Z,3.63
2022-09-01T15:36:16.463Z,3.03
2022-09-01T15:38:43.791Z,3.03
2022-09-01T15:41:17.877Z,2.83
2022-09-01T15:43:44.853Z,3.10
2022-09-01T15:46:12.354Z,3.20
2022-09-01T15:48:39.351Z,3.03
2022-09-01T15:51:30.216Z,2.90
2022-09-01T15:54:00.376Z,3.50
2022-09-01T15:56:28.832Z,3.30
2022-09-01T15:59:02.877Z,2.60
2022-09-01T16:01:32.497Z,3.10
2022-09-01T16:03:59.451Z,3.50
2022-09-01T16:06:26.691Z,3.30
2022-09-01T16:08:54.425Z,3.93
2022-09-01T16:11:23.518Z,3.70
2022-09-01T16:13:53.744Z,4.80
2022-09-01T16:16:36.219Z,3.30
2022-09-01T16:19:07.469Z,3.43
2022-09-01T16:21:44.204Z,4.50
2022-09-01T16:24:12.731Z,3.20
2022-09-01T16:26:41.201Z,3.40
2022-09-01T16:29:14.704Z,3.73
2022-09-01T16:31:42.836Z,3.17
2022-09-01T16:34:16.368Z,3.80
2022-09-01T16:36:52.301Z,2.90
2022-09-01T16:39:29.391Z,2.90
2022-09-01T16:42:03.860Z,3.07
2022-09-01T16:44:41.950Z,3.30
2022-09-01T16:47:25.577Z,3.13
2022-09-01T16:50:05.359Z,3.90
2022-09-01T16:52:42.483Z,3.70
2022-09-01T16:55:22.510Z,3.00
2022-09-01T16:57:59.625Z,4.23
2022-09-01T17:00:37.083Z,3.53
2022-09-01T17:03:16.987Z,3.67
2022-09-01T17:05:54.240Z,3.40
2022-09-01T17:08:23.413Z,3.37
2022-09-01T17:10:55.106Z,4.10
2022-09-01T17:13:28.949Z,3.20
2022-09-01T17:16:07.889Z,3.17
2022-09-01T17:18:39.555Z,3.53
2022-09-01T17:21:14.264Z,3.00
2022-09-01T17:23:50.176Z,3.60
2022-09-01T17:26:21.947Z,2.93
2022-09-01T17:28:55.155Z,4.00
2022-09-01T17:31:49.228Z,3.43
2022-09-01T17:34:30.098Z,4.03
2022-09-01T17:37:10.459Z,4.47
2022-09-01T17:39:49.443Z,3.20
2022-09-01T17:42:24.091Z,3.40
2022-09-01T17:44:56.308Z,3.67
2022-09-01T17:47:37.364Z,3.67
2022-09-01T17:50:15.132Z,3.20
2022-09-01T17:52:52.929Z,3.43
2022-09-01T17:55:36.615Z,4.23
2022-09-01T17:58:10.146Z,4.60
2022-09-01T18:00:44.490Z,3.23
2022-09-01T18:03:34.361Z,3.77
2022-09-01T18:06:06.076Z,3.60
2022-09-01T18:08:39.038Z,3.33
2022-09-01T18:11:11.510Z,3.73
2022-09-01T18:13:53.793Z,3.20
2022-09-01T18:16:25.336Z,4.87
2022-09-01T18:18:53.982Z,3.13
2022-09-01T18:21:24.531Z,3.87
2022-09-01T18:23:55.367Z,4.43
2022-09-01T18:26:29.573Z,3.60
2022-09-01T18:28:57.290Z,4.10
2022-09-01T18:31:53.151Z,3.33
2022-09-01T18:34:27.522Z,4.37
2022-09-01T18:37:05.034Z,4.30
2022-09-01T18:39:43.373Z,3.77
2022-09-01T18:42:16.227Z,4.27
2022-09-01T18:44:51.202Z,3.40
2022-09-01T18:47:28.747Z,3.90
2022-09-01T18:50:06.198Z,4.03
2022-09-01T18:52:52.550Z,3.70
2022-09-01T18:55:24.523Z,4.67
2022-09-01T18:57:53.376Z,4.20
2022-09-01T19:00:21.859Z,4.27
2022-09-01T19:03:04.729Z,4.57
2022-09-01T19:05:59.703Z,5.03
2022-09-01T19:08:48.284Z,3.80
2022-09-01T19:11:23.149Z,4.10
2022-09-01T19:13:59.678Z,4.77
2022-09-01T19:16:37.665Z,3.70
2022-09-01T19:19:17.886Z,3.33
2022-09-01T19:21:49.191Z,4.33
2022-09-01T19:24:25.187Z,3.60
2022-09-01T19:26:57.949Z,4.20
2022-09-01T19:29:29.457Z,4.57
2022-09-01T19:32:02.234Z,4.50
2022-09-01T19:34:36.169Z,3.80
2022-09-01T19:37:05.060Z,4.63
2022-09-01T19:39:35.117Z,4.33
2022-09-01T19:42:08.279Z,4.67
2022-09-01T19:44:44.561Z,3.60
2022-09-01T19:47:16.025Z,5.77
2022-09-01T19:49:49.524Z,4.70
2022-09-01T19:52:27.109Z,6.10
2022-09-01T19:55:00.276Z,3.87
2022-09-01T19:57:33.224Z,5.17
2022-09-01T20:00:08.201Z,7.47
2022-09-01T20:02:37.734Z,4.83
2022-09-01T20:05:11.683Z,4.70
2022-09-01T20:07:45.992Z,5.50
2022-09-01T20:10:21.720Z,4.30
2022-09-01T20:12:57.857Z,5.73
2022-09-01T20:15:34.418Z,4.20
2022-09-01T20:18:05.396Z,4.20
2022-09-01T20:20:39.018Z,4.80
2022-09-01T20:23:14.122Z,5.07
2022-09-01T20:25:45.413Z,4.63
2022-09-01T20:28:19.312Z,6.40
2022-09-01T20:30:53.092Z,5.30
2022-09-01T20:33:25.644Z,5.50
2022-09-01T20:35:56.233Z,4.20
2022-09-01T20:38:50.828Z,4.60
2022-09-01T20:41:26.037Z,4.20
2022-09-01T20:43:56.118Z,6.33
2022-09-01T20:46:24.369Z,5.10
2022-09-01T20:48:51.400Z,5.50
2022-09-01T20:51:26.061Z,4.70
2022-09-01T20:54:06.933Z,4.17
2022-09-01T20:56:43.548Z,3.77
2022-09-01T20:59:17.715Z,5.97
2022-09-01T21:02:00.456Z,4.70
2022-09-01T21:04:38.163Z,4.20
2022-09-01T21:07:13.072Z,4.70
2022-09-01T21:09:51.997Z,5.23
2022-09-01T21:12:28.067Z,4.57
2022-09-01T21:15:03.822Z,4.10
2022-09-01T21:17:38.386Z,4.13
2022-09-01T21:20:13.707Z,4.67
2022-09-01T21:22:40.578Z,6.50
2022-09-01T21:25:08.923Z,5.43
2022-09-01T21:27:42.094Z,6.97
2022-09-01T21:30:11.948Z,5.30
2022-09-01T21:32:39.643Z,5.63
2022-09-01T21:35:09.484Z,5.10
2022-09-01T21:37:36.434Z,4.10
2022-09-01T21:40:05.298Z,4.40
2022-09-01T21:42:38.437Z,4.33
2022-09-01T21:45:07.507Z,4.40
2022-09-01T21:47:34.651Z,4.40
2022-09-01T21:50:01.696Z,5.00
2022-09-01T21:52:28.613Z,4.17
2022-09-01T21:54:55.527Z,4.13
2022-09-01T21:57:23.097Z,6.23
2022-09-01T21:59:51.529Z,5.67
2022-09-01T22:02:20.491Z,4.40
2022-09-01T22:04:48.829Z,5.47
2022-09-01T22:07:18.738Z,5.30
2022-09-01T22:09:46.327Z,5.07
2022-09-01T22:12:14.140Z,4.83
2022-09-01T22:14:41.066Z,4.27
2022-09-01T22:17:09.449Z,4.60
2022-09-01T22:19:36.703Z,6.33
2022-09-01T22:22:04.152Z,4.53
2022-09-01T22:24:31.552Z,4.73
2022-09-01T22:26:58.539Z,5.67
2022-09-01T22:29:25.508Z,4.83
2022-09-01T22:31:52.598Z,4.20
2022-09-01T22:34:20.926Z,6.03
2022-09-01T22:36:49.306Z,4.13
2022-09-01T22:39:18.375Z,4.50
2022-09-01T22:41:45.461Z,5.23
2022-09-01T22:44:12.757Z,4.63
2022-09-01T22:46:40.533Z,4.33
2022-09-01T22:49:08.848Z,4.80
2022-09-01T22:51:38.579Z,5.00
2022-09-01T22:54:05.801Z,4.90
2022-09-01T22:56:34.950Z,5.03
2022-09-01T22:59:05.110Z,4.80
2022-09-01T23:01:35.270Z,5.43
2022-09-01T23:04:04.882Z,4.83
2022-09-01T23:06:33.358Z,5.23
2022-09-01T23:09:03.098Z,4.97
2022-09-01T23:11:30.071Z,5.00
2022-09-01T23:13:57.090Z,6.03
2022-09-01T23:16:25.094Z,4.60
2022-09-01T23:18:54.484Z,4.67
2022-09-01T23:21:24.228Z,5.00
2022-09-01T23:23:58.475Z,4.90
2022-09-01T23:26:29.024Z,5.20
2022-09-01T23:28:56.922Z,5.97
2022-09-01T23:31:26.676Z,5.60
2022-09-01T23:33:54.526Z,5.90
2022-09-01T23:36:23.396Z,5.93
2022-09-01T23:38:51.710Z,5.03
2022-09-01T23:41:23.245Z,5.47
2022-09-01T23:43:52.294Z,5.20
2022-09-01T23:46:22.095Z,5.47
2022-09-01T23:48:49.347Z,4.90
2022-09-01T23:51:18.192Z,5.13
2022-09-01T23:53:46.933Z,5.23
2022-09-01T23:56:16.805Z,5.33
2022-09-01T23:58:44.183Z,5.13
